Time;durP1;ratioP1;P1;durP2;ratioP2;P2;SDS_P1;SDS_P2;PMS_P1;PMS_P2;Temp;Humidity;BMP_temperature;BMP_pressure;BME280_temperature;BME280_humidity;BME280_pressure;Samples;Min_cycle;Max_cycle;Signal;HPM_P1;HPM_P2
2023/07/03 02:48:24;;;;;;;35.97;13.93;;;13.50;99.90;;;;;;5141303;27;20122;-73
2023/07/03 02:50:53;;;;;;;38.90;15.80;;;13.40;99.90;;;;;;5098316;28;20044;-74
2023/07/03 02:53:22;;;;;;;46.40;16.55;;;13.50;99.90;;;;;;5124094;27;20422;-75
2023/07/03 02:55:49;;;;;;;35.83;15.07;;;13.60;99.90;;;;;;5124076;28;20054;-73
2023/07/03 02:58:17;;;;;;;36.35;14.98;;;13.70;99.90;;;;;;5122766;27;20039;-74
2023/07/03 03:00:42;;;;;;;38.25;14.90;;;13.80;99.90;;;;;;5110565;28;20035;-73
2023/07/03 03:03:08;;;;;;;35.85;15.00;;;13.90;99.90;;;;;;5103116;28;20383;-76
2023/07/03 03:05:33;;;;;;;34.60;14.20;;;14.00;99.90;;;;;;5126839;27;20023;-75
2023/07/03 03:07:59;;;;;;;34.35;15.07;;;14.10;99.90;;;;;;5122811;27;20459;-75
2023/07/03 03:10:25;;;;;;;35.05;14.32;;;14.00;99.90;;;;;;5121892;27;20035;-73
2023/07/03 03:12:51;;;;;;;39.08;16.20;;;14.10;99.90;;;;;;5120610;28;20019;-74
2023/07/03 03:15:18;;;;;;;43.25;16.05;;;14.00;99.90;;;;;;5125814;27;20142;-73
2023/07/03 03:17:44;;;;;;;34.00;15.80;;;13.90;99.90;;;;;;5121472;27;20035;-72
2023/07/03 03:20:13;;;;;;;43.92;15.27;;;13.90;99.90;;;;;;5123947;28;20020;-75
2023/07/03 03:22:39;;;;;;;37.53;15.35;;;14.00;99.90;;;;;;5106226;28;20027;-75
2023/07/03 03:25:08;;;;;;;38.40;16.15;;;13.90;99.90;;;;;;5106529;28;20050;-74
2023/07/03 03:27:34;;;;;;;38.13;15.48;;;13.80;99.90;;;;;;5126388;28;20035;-76
2023/07/03 03:29:59;;;;;;;38.80;15.13;;;13.80;99.90;;;;;;5125106;28;20030;-75
2023/07/03 03:32:25;;;;;;;36.60;15.40;;;13.90;99.90;;;;;;5123259;28;20065;-74
2023/07/03 03:34:51;;;;;;;37.97;14.90;;;14.00;99.90;;;;;;5123048;28;20073;-73
2023/07/03 03:37:17;;;;;;;35.45;14.52;;;14.00;99.90;;;;;;5105894;28;20047;-75
2023/07/03 03:39:43;;;;;;;32.28;15.13;;;13.90;99.90;;;;;;5105944;28;20535;-74
2023/07/03 03:42:09;;;;;;;39.10;15.20;;;13.90;99.90;;;;;;5120557;28;20035;-74
2023/07/03 03:44:35;;;;;;;39.97;14.55;;;14.00;99.90;;;;;;5116251;28;20467;-75
2023/07/03 03:47:02;;;;;;;34.17;14.98;;;13.90;99.90;;;;;;5126388;27;20052;-74
2023/07/03 03:49:29;;;;;;;42.33;14.77;;;13.90;99.90;;;;;;5126059;28;20106;-73
2023/07/03 03:51:54;;;;;;;38.70;15.73;;;13.90;99.90;;;;;;5121565;28;20023;-75
2023/07/03 03:54:20;;;;;;;36.97;15.27;;;14.00;99.90;;;;;;5105509;28;20020;-75
2023/07/03 03:56:47;;;;;;;37.25;15.75;;;14.10;99.90;;;;;;5109336;27;20403;-74
2023/07/03 03:59:12;;;;;;;34.40;15.23;;;14.10;99.90;;;;;;5103785;27;20146;-74
2023/07/03 04:01:38;;;;;;;35.28;14.80;;;14.20;99.90;;;;;;5131262;27;20102;-72
2023/07/03 04:04:04;;;;;;;36.47;14.63;;;14.30;99.90;;;;;;5132398;27;20038;-75
2023/07/03 04:06:30;;;;;;;39.95;17.08;;;14.20;99.90;;;;;;5127729;27;20469;-76
2023/07/03 04:08:59;;;;;;;41.03;15.25;;;14.30;99.90;;;;;;5111011;28;20537;-76
2023/07/03 04:11:28;;;;;;;41.35;15.15;;;14.30;99.90;;;;;;5107102;28;20019;-76
2023/07/03 04:13:54;;;;;;;39.33;15.77;;;14.40;99.90;;;;;;5111166;28;20456;-74
2023/07/03 04:16:20;;;;;;;39.38;14.55;;;14.40;99.90;;;;;;5115681;27;20122;-78
2023/07/03 04:18:46;;;;;;;36.97;15.15;;;14.50;99.90;;;;;;5112868;27;20030;-73
2023/07/03 04:21:12;;;;;;;35.92;14.30;;;14.40;99.90;;;;;;5111371;28;20035;-74
2023/07/03 04:23:37;;;;;;;35.88;14.68;;;14.50;99.90;;;;;;5111818;28;20024;-74
2023/07/03 04:26:03;;;;;;;35.03;14.38;;;14.60;99.90;;;;;;5125246;27;20448;-79
2023/07/03 04:28:29;;;;;;;39.58;14.40;;;14.50;99.90;;;;;;5111583;27;20027;-74
2023/07/03 04:30:54;;;;;;;35.30;14.50;;;14.50;99.90;;;;;;5130093;27;20102;-78
2023/07/03 04:33:20;;;;;;;37.40;14.45;;;14.60;99.90;;;;;;5095024;28;20109;-79
2023/07/03 04:35:47;;;;;;;40.92;15.20;;;14.70;99.90;;;;;;5111459;28;20040;-76
2023/07/03 04:38:17;;;;;;;35.20;15.02;;;14.80;99.90;;;;;;5111367;28;20523;-76
2023/07/03 04:40:43;;;;;;;34.88;14.93;;;14.80;99.90;;;;;;5125101;27;20100;-73
2023/07/03 04:43:09;;;;;;;40.05;15.55;;;14.90;99.90;;;;;;5104185;28;20620;-73
2023/07/03 04:45:42;;;;;;;36.90;13.45;;;14.90;99.90;;;;;;5111218;28;20015;-80
2023/07/03 04:48:07;;;;;;;41.35;15.30;;;15.00;99.90;;;;;;5108932;28;20083;-79
2023/07/03 04:50:33;;;;;;;36.63;14.98;;;15.10;99.90;;;;;;5110609;28;20063;-76
2023/07/03 04:52:59;;;;;;;35.17;14.80;;;15.10;99.90;;;;;;5108470;28;20038;-73
2023/07/03 04:55:24;;;;;;;34.33;14.45;;;15.20;99.90;;;;;;5091044;28;20468;-78
2023/07/03 04:57:50;;;;;;;33.92;15.18;;;15.30;99.90;;;;;;5106630;28;20036;-72
2023/07/03 05:00:19;;;;;;;32.85;13.80;;;15.30;99.90;;;;;;5108918;28;20560;-77
2023/07/03 05:02:46;;;;;;;40.90;15.10;;;15.40;99.90;;;;;;5120323;27;20079;-76
2023/07/03 05:05:12;;;;;;;33.30;13.27;;;15.50;99.90;;;;;;5127102;27;20019;-73
2023/07/03 05:07:39;;;;;;;30.98;12.75;;;15.60;99.90;;;;;;5107970;28;20039;-73
2023/07/03 05:10:07;;;;;;;36.05;14.05;;;15.60;99.90;;;;;;5088715;28;20032;-79
2023/07/03 05:12:32;;;;;;;40.03;13.98;;;15.70;99.90;;;;;;5107664;27;20035;-79
2023/07/03 05:14:58;;;;;;;34.88;13.75;;;15.80;99.90;;;;;;5114308;27;20472;-76
2023/07/03 05:17:24;;;;;;;33.70;14.25;;;15.90;99.90;;;;;;5108833;28;20044;-75
2023/07/03 05:19:50;;;;;;;39.72;12.95;;;16.00;99.90;;;;;;5107593;28;20049;-72
2023/07/03 05:22:16;;;;;;;35.53;13.40;;;16.00;99.90;;;;;;5107438;27;20039;-77
2023/07/03 05:24:41;;;;;;;33.03;13.10;;;16.10;99.90;;;;;;5110551;28;20080;-72
2023/07/03 05:27:07;;;;;;;40.10;12.82;;;16.00;99.90;;;;;;5107927;28;20040;-73
2023/07/03 05:29:33;;;;;;;30.23;13.10;;;16.10;99.90;;;;;;5120478;27;20028;-76
2023/07/03 05:32:00;;;;;;;34.25;12.50;;;16.20;99.90;;;;;;5126945;27;20031;-74
2023/07/03 05:34:29;;;;;;;35.35;12.30;;;16.30;99.90;;;;;;5110398;27;20035;-74
2023/07/03 05:36:56;;;;;;;35.65;12.70;;;16.30;99.90;;;;;;5108742;28;20156;-72
2023/07/03 05:39:22;;;;;;;33.65;12.50;;;16.30;99.90;;;;;;5109943;28;20565;-73
2023/07/03 05:41:47;;;;;;;32.63;12.15;;;16.30;99.90;;;;;;5109549;28;20035;-74
2023/07/03 05:44:13;;;;;;;32.10;12.90;;;16.40;99.90;;;;;;5107539;28;20066;-78
2023/07/03 05:46:39;;;;;;;30.05;12.45;;;16.50;99.90;;;;;;5109562;28;20044;-77
2023/07/03 05:49:04;;;;;;;35.22;13.13;;;16.40;99.90;;;;;;5089161;28;20047;-77
2023/07/03 05:51:30;;;;;;;33.05;12.70;;;16.40;99.90;;;;;;5114593;27;20472;-72
2023/07/03 05:53:55;;;;;;;44.08;12.68;;;16.40;99.90;;;;;;5114706;27;20039;-73
2023/07/03 05:56:21;;;;;;;37.63;13.38;;;16.40;99.90;;;;;;5108995;28;20039;-76
2023/07/03 05:58:47;;;;;;;32.97;12.52;;;16.50;99.90;;;;;;5109801;28;20050;-75
2023/07/03 06:01:12;;;;;;;33.42;12.55;;;16.50;99.90;;;;;;5105662;28;20120;-73
2023/07/03 06:03:42;;;;;;;37.95;12.77;;;16.50;99.90;;;;;;5107970;28;20373;-71
2023/07/03 06:06:08;;;;;;;34.53;12.70;;;16.50;99.90;;;;;;5103633;27;20384;-73
2023/07/03 06:08:34;;;;;;;27.15;12.32;;;16.60;99.90;;;;;;5108299;28;20452;-75
2023/07/03 06:11:00;;;;;;;35.05;12.48;;;16.60;99.90;;;;;;5108843;28;20020;-76
2023/07/03 06:13:26;;;;;;;24.23;11.15;;;16.70;99.90;;;;;;5109624;28;20038;-71
2023/07/03 06:15:51;;;;;;;26.90;11.25;;;16.80;99.90;;;;;;5110200;27;20032;-74
2023/07/03 06:18:17;;;;;;;34.22;11.68;;;16.80;99.90;;;;;;5106411;28;20047;-76
2023/07/03 06:20:43;;;;;;;25.60;10.43;;;16.90;99.90;;;;;;5109015;28;20023;-73
2023/07/03 06:23:08;;;;;;;29.77;11.27;;;17.00;99.90;;;;;;5107537;28;20452;-73
2023/07/03 06:25:34;;;;;;;29.35;11.52;;;17.00;99.90;;;;;;5111189;27;20027;-74
2023/07/03 06:28:00;;;;;;;28.90;11.32;;;17.10;99.90;;;;;;5099520;28;20036;-76
2023/07/03 06:30:26;;;;;;;32.58;11.07;;;17.20;99.90;;;;;;5108161;28;20073;-69
2023/07/03 06:32:51;;;;;;;28.17;11.55;;;17.30;99.90;;;;;;5089754;28;20523;-71
2023/07/03 06:35:17;;;;;;;31.05;11.27;;;17.40;99.90;;;;;;5106648;28;20098;-71
2023/07/03 06:37:43;;;;;;;32.85;11.55;;;17.40;99.90;;;;;;5118864;27;20105;-72
2023/07/03 06:40:10;;;;;;;31.45;10.90;;;17.50;99.90;;;;;;5127066;27;20027;-73
2023/07/03 06:42:37;;;;;;;33.47;10.90;;;17.60;99.90;;;;;;5109413;28;20063;-71
2023/07/03 06:45:03;;;;;;;38.17;11.88;;;17.60;99.90;;;;;;5107509;28;20024;-71
2023/07/03 06:47:29;;;;;;;35.97;11.40;;;17.70;99.90;;;;;;5116288;28;20047;-75
2023/07/03 06:49:55;;;;;;;30.05;11.85;;;17.70;99.90;;;;;;5108357;28;20036;-73
2023/07/03 06:52:20;;;;;;;28.35;10.65;;;17.80;99.90;;;;;;5107737;28;20521;-73
2023/07/03 06:54:47;;;;;;;31.48;10.73;;;17.90;99.90;;;;;;5108134;28;20488;-70
2023/07/03 06:57:13;;;;;;;26.45;10.52;;;18.00;99.90;;;;;;5115842;28;20463;-76
2023/07/03 06:59:38;;;;;;;26.25;10.38;;;18.00;99.90;;;;;;5107793;28;20036;-77
2023/07/03 07:02:06;;;;;;;27.27;10.45;;;18.00;99.90;;;;;;5097491;28;20387;-72
2023/07/03 07:04:32;;;;;;;27.70;10.65;;;18.10;99.90;;;;;;5093435;28;20032;-74
2023/07/03 07:06:58;;;;;;;31.48;10.60;;;18.20;99.90;;;;;;5112341;28;20072;-75
2023/07/03 07:09:24;;;;;;;22.80;9.35;;;18.30;99.90;;;;;;5109261;28;20028;-79
2023/07/03 07:11:50;;;;;;;44.05;11.07;;;18.10;99.90;;;;;;5124384;28;20031;-78
2023/07/03 07:14:17;;;;;;;30.85;10.50;;;18.10;99.90;;;;;;5110213;28;20112;-79
2023/07/03 07:16:43;;;;;;;33.47;10.52;;;18.20;99.90;;;;;;5112079;28;20039;-75
2023/07/03 07:19:12;;;;;;;25.65;9.65;;;18.40;99.90;;;;;;5106561;28;20480;-81
2023/07/03 07:21:40;;;;;;;26.58;9.65;;;18.60;99.90;;;;;;5108857;28;20073;-72
2023/07/03 07:24:14;;;;;;;24.10;9.75;;;18.80;99.90;;;;;;5108317;28;20027;-77
2023/07/03 07:26:40;;;;;;;29.70;9.77;;;18.90;99.90;;;;;;5106768;28;20047;-72
2023/07/03 07:29:05;;;;;;;30.92;10.88;;;19.00;99.90;;;;;;5108189;28;20035;-75
2023/07/03 07:31:31;;;;;;;26.00;9.88;;;18.90;99.90;;;;;;5088985;28;20085;-72
2023/07/03 07:33:57;;;;;;;22.00;9.50;;;18.90;99.90;;;;;;5110027;28;20070;-73
2023/07/03 07:36:25;;;;;;;25.17;8.98;;;19.00;99.90;;;;;;5112125;28;20051;-78
2023/07/03 07:38:52;;;;;;;29.35;9.30;;;18.90;99.90;;;;;;5107785;28;20095;-76
2023/07/03 07:41:19;;;;;;;26.45;9.85;;;19.10;99.90;;;;;;5109698;28;20059;-80
2023/07/03 07:43:47;;;;;;;21.00;9.02;;;19.10;99.90;;;;;;5111499;28;20493;-76
2023/07/03 07:46:13;;;;;;;21.27;9.60;;;19.10;99.90;;;;;;5111158;28;20051;-75
2023/07/03 07:48:39;;;;;;;29.27;9.13;;;19.10;99.90;;;;;;5112349;28;20043;-80
2023/07/03 07:51:11;;;;;;;22.40;9.13;;;19.10;99.90;;;;;;5109988;28;20468;-78
2023/07/03 07:53:37;;;;;;;23.75;9.85;;;19.00;99.90;;;;;;5111624;28;20053;-78
2023/07/03 07:56:05;;;;;;;21.42;9.32;;;19.10;99.90;;;;;;5111396;28;20023;-76
2023/07/03 07:58:31;;;;;;;22.45;9.40;;;19.40;99.90;;;;;;5112204;28;20066;-76
2023/07/03 08:00:57;;;;;;;29.08;10.15;;;19.80;99.90;;;;;;5111655;28;20836;-75
2023/07/03 08:03:24;;;;;;;25.75;9.50;;;19.80;99.90;;;;;;5108231;28;20104;-74
2023/07/03 08:05:50;;;;;;;27.10;9.15;;;19.60;99.90;;;;;;5112055;28;20030;-76
2023/07/03 08:08:16;;;;;;;24.08;10.27;;;19.30;99.90;;;;;;5112826;27;20091;-76
2023/07/03 08:10:50;;;;;;;30.05;10.15;;;19.40;99.90;;;;;;5111684;28;20487;-72
2023/07/03 08:13:16;;;;;;;21.92;9.40;;;19.60;99.90;;;;;;5110376;28;20061;-73
2023/07/03 08:15:45;;;;;;;31.70;10.00;;;19.80;99.90;;;;;;5110852;28;20476;-72
2023/07/03 08:18:11;;;;;;;29.77;9.75;;;19.70;99.90;;;;;;5110296;28;20044;-72
2023/07/03 08:20:36;;;;;;;27.17;9.57;;;19.70;99.90;;;;;;5111664;28;20035;-73
2023/07/03 08:23:02;;;;;;;27.48;9.93;;;20.00;99.90;;;;;;5109782;27;20035;-73
2023/07/03 08:25:28;;;;;;;21.17;9.10;;;19.90;99.90;;;;;;5116746;27;20035;-74
2023/07/03 08:27:57;;;;;;;21.02;8.95;;;19.60;99.90;;;;;;5127684;27;20071;-78
2023/07/03 08:30:23;;;;;;;22.05;9.00;;;19.50;99.90;;;;;;5108100;28;20028;-77
2023/07/03 08:32:48;;;;;;;25.95;9.57;;;19.30;99.90;;;;;;5110696;28;20371;-73
2023/07/03 08:35:16;;;;;;;26.05;9.68;;;19.20;99.90;;;;;;5110506;28;20024;-73
2023/07/03 08:37:42;;;;;;;21.90;9.15;;;19.30;99.90;;;;;;5111482;28;20090;-74
2023/07/03 08:40:09;;;;;;;23.27;9.02;;;19.40;99.90;;;;;;5110173;28;20024;-77
2023/07/03 08:42:53;;;;;;;25.80;9.93;;;19.40;99.90;;;;;;5111452;28;20509;-76
2023/07/03 08:45:25;;;;;;;21.45;8.90;;;19.50;99.90;;;;;;5109676;28;20024;-75
2023/07/03 08:47:55;;;;;;;26.73;9.75;;;19.60;99.90;;;;;;5091633;28;20052;-77
2023/07/03 08:50:23;;;;;;;20.77;8.73;;;19.60;99.90;;;;;;5108808;28;20543;-75
2023/07/03 08:52:56;;;;;;;25.83;9.40;;;19.40;99.90;;;;;;5115651;27;20106;-75
2023/07/03 08:55:26;;;;;;;26.33;9.45;;;19.10;99.90;;;;;;5127930;27;20038;-74
2023/07/03 08:57:52;;;;;;;;;;;18.90;99.90;;;;;;5110178;28;20081;-74
2023/07/03 09:00:20;;;;;;;28.80;9.40;;;18.90;99.90;;;;;;5110414;28;19904;-77
2023/07/03 09:03:13;;;;;;;21.60;10.05;;;18.90;99.90;;;;;;5109253;28;20476;-74
2023/07/03 09:05:45;;;;;;;27.98;9.43;;;19.00;99.90;;;;;;5110968;28;20031;-80
2023/07/03 09:08:25;;;;;;;26.25;9.40;;;18.90;99.90;;;;;;5110123;28;20036;-77
2023/07/03 09:10:51;;;;;;;;;;;18.70;99.90;;;;;;5110092;28;20027;-76
2023/07/03 09:13:24;;;;;;;26.52;11.07;;;18.60;99.90;;;;;;5110052;28;19918;-78
2023/07/03 09:15:55;;;;;;;29.23;11.05;;;18.60;99.90;;;;;;5110758;28;20027;-72
2023/07/03 09:18:27;;;;;;;30.90;11.05;;;18.60;99.90;;;;;;5107124;28;20031;-73
2023/07/03 09:20:54;;;;;;;30.27;10.45;;;18.60;99.90;;;;;;5110442;28;20028;-76
2023/07/03 09:23:26;;;;;;;32.00;11.40;;;18.60;99.90;;;;;;5108967;28;20427;-74
2023/07/03 09:26:02;;;;;;;29.17;10.18;;;18.60;99.90;;;;;;5125751;27;20055;-73
2023/07/03 09:28:29;;;;;;;25.50;10.45;;;18.70;99.90;;;;;;5081105;28;20039;-78
2023/07/03 09:30:55;;;;;;;25.77;10.63;;;18.80;99.90;;;;;;5108198;28;20514;-80
2023/07/03 09:33:21;;;;;;;36.55;11.32;;;19.40;99.90;;;;;;5108262;28;20035;-76
2023/07/03 09:35:47;;;;;;;29.13;10.95;;;19.90;99.90;;;;;;5110493;28;20032;-78
2023/07/03 09:38:21;;;;;;;25.15;10.82;;;20.30;99.90;;;;;;5109557;28;20063;-81
2023/07/03 09:40:49;;;;;;;29.75;10.55;;;20.00;99.90;;;;;;5110397;28;20469;-81
2023/07/03 09:43:21;;;;;;;29.02;10.63;;;19.70;99.90;;;;;;5108225;28;20103;-71
2023/07/03 09:45:51;;;;;;;31.95;10.95;;;19.60;99.90;;;;;;5109553;28;20031;-71
2023/07/03 09:48:23;;;;;;;31.95;11.65;;;19.40;99.90;;;;;;5123200;27;20059;-75
2023/07/03 09:50:50;;;;;;;29.65;11.10;;;19.30;99.90;;;;;;5088905;28;20541;-75
2023/07/03 09:53:21;;;;;;;38.92;11.77;;;19.30;99.90;;;;;;5088752;28;20028;-78
2023/07/03 09:55:52;;;;;;;31.77;11.02;;;19.40;99.90;;;;;;5088287;28;20060;-74
2023/07/03 09:58:17;;;;;;;;;;;19.90;99.90;;;;;;5089388;28;20036;-73
2023/07/03 10:00:49;;;;;;;34.95;10.98;;;20.40;99.90;;;;;;5086471;28;19908;-74
2023/07/03 10:03:31;;;;;;;31.98;10.40;;;21.10;99.90;;;;;;5084423;28;20058;-76
2023/07/03 10:06:11;;;;;;;27.77;10.88;;;21.70;99.90;;;;;;5083904;28;20559;-75
2023/07/03 10:08:44;;;;;;;28.83;11.30;;;21.60;99.90;;;;;;5081206;28;20044;-74
2023/07/03 10:11:11;;;;;;;29.15;10.90;;;21.50;99.90;;;;;;5088617;28;20059;-72
2023/07/03 10:13:44;;;;;;;27.73;11.20;;;21.20;99.90;;;;;;5093903;28;20028;-74
2023/07/03 10:16:12;;;;;;;25.90;10.77;;;21.00;99.90;;;;;;5088239;28;20024;-72
2023/07/03 10:18:43;;;;;;;25.40;10.50;;;20.70;99.90;;;;;;5088078;28;20365;-73
2023/07/03 10:21:12;;;;;;;28.05;10.32;;;20.70;99.90;;;;;;5093986;28;20031;-71
2023/07/03 10:23:41;;;;;;;29.27;10.87;;;20.90;99.90;;;;;;5104530;28;20020;-74
2023/07/03 10:26:17;;;;;;;25.63;10.63;;;21.00;99.90;;;;;;5076287;28;20042;-71
2023/07/03 10:28:57;;;;;;;26.15;9.77;;;21.10;99.90;;;;;;5072359;28;20031;-74
2023/07/03 10:31:47;;;;;;;28.20;9.60;;;21.60;99.90;;;;;;5085163;28;20413;-76
2023/07/03 10:34:19;;;;;;;28.67;9.20;;;21.90;99.90;;;;;;5086371;28;20496;-72
2023/07/03 10:36:49;;;;;;;28.92;10.45;;;21.60;99.90;;;;;;5095675;28;20050;-72
2023/07/03 10:39:30;;;;;;;24.73;8.48;;;21.70;99.90;;;;;;5108780;28;20028;-80
2023/07/03 10:42:00;;;;;;;24.33;9.40;;;21.70;99.90;;;;;;5098405;28;20036;-74
2023/07/03 10:44:30;;;;;;;31.00;9.65;;;21.70;99.30;;;;;;5067808;28;20025;-75
2023/07/03 10:47:06;;;;;;;22.35;8.98;;;22.10;99.90;;;;;;5079965;28;20056;-75
2023/07/03 10:49:35;;;;;;;25.33;8.90;;;22.90;99.60;;;;;;5108695;28;20027;-74
2023/07/03 10:52:22;;;;;;;24.92;8.98;;;23.00;96.60;;;;;;5109118;28;20030;-82
2023/07/03 10:55:17;;;;;;;25.42;9.27;;;22.10;97.30;;;;;;5114954;28;20062;-76
2023/07/03 10:58:10;;;;;;;23.27;8.68;;;22.10;99.40;;;;;;5100040;28;20062;-72
2023/07/03 11:00:47;;;;;;;25.92;9.20;;;22.40;97.30;;;;;;5107778;28;20035;-78
2023/07/03 11:03:27;;;;;;;25.90;8.93;;;22.10;97.10;;;;;;5108346;28;20055;-72
2023/07/03 11:06:04;;;;;;;21.98;8.45;;;21.80;96.70;;;;;;5108576;28;20537;-73
2023/07/03 11:08:47;;;;;;;22.33;8.45;;;21.50;98.80;;;;;;5108533;28;20031;-77
2023/07/03 11:11:36;;;;;;;21.60;8.73;;;21.50;97.00;;;;;;5107042;27;20031;-75
2023/07/03 11:14:25;;;;;;;23.80;8.63;;;21.60;98.00;;;;;;5113116;28;20028;-77
2023/07/03 11:17:27;;;;;;;27.77;8.68;;;21.50;97.00;;;;;;5061084;28;20047;-75
2023/07/03 11:20:08;;;;;;;20.95;8.70;;;21.60;97.00;;;;;;5081662;28;20042;-76
2023/07/03 11:23:01;;;;;;;24.08;8.50;;;21.90;96.50;;;;;;5110265;28;20023;-75
2023/07/03 11:25:45;;;;;;;22.67;7.78;;;22.20;96.50;;;;;;5111174;28;20035;-76
2023/07/03 11:28:26;;;;;;;17.98;7.03;;;22.30;94.70;;;;;;5099738;27;20039;-75
2023/07/03 11:30:52;;;;;;;21.77;7.68;;;21.90;95.30;;;;;;5092594;28;20024;-78
2023/07/03 11:33:21;;;;;;;21.20;8.00;;;21.50;95.10;;;;;;5091802;28;20107;-76
2023/07/03 11:35:58;;;;;;;21.15;7.30;;;21.30;95.20;;;;;;5092246;28;20032;-73
2023/07/03 11:38:30;;;;;;;19.35;8.30;;;21.30;96.10;;;;;;5096522;28;20027;-76
2023/07/03 11:40:56;;;;;;;27.25;7.82;;;21.20;96.00;;;;;;5111586;28;20538;-75
2023/07/03 11:43:22;;;;;;;22.45;8.25;;;21.40;97.00;;;;;;5111205;28;20031;-74
2023/07/03 11:45:57;;;;;;;18.70;7.47;;;21.80;95.20;;;;;;5112687;28;20033;-77
2023/07/03 11:48:29;;;;;;;20.33;8.20;;;22.20;96.90;;;;;;5121082;27;20054;-75
2023/07/03 11:51:01;;;;;;;22.35;7.93;;;22.90;93.70;;;;;;5119174;27;20024;-72
2023/07/03 11:53:40;;;;;;;19.45;7.60;;;23.00;92.10;;;;;;5110354;28;20040;-75
2023/07/03 11:56:27;;;;;;;17.73;6.97;;;22.80;91.10;;;;;;5111796;28;20034;-74
2023/07/03 11:59:08;;;;;;;17.98;6.50;;;23.00;91.40;;;;;;5090294;28;20043;-73
2023/07/03 12:01:34;;;;;;;26.85;6.93;;;23.00;90.70;;;;;;5118182;27;20091;-71
2023/07/03 12:04:10;;;;;;;16.60;6.63;;;22.50;91.40;;;;;;5094715;28;20016;-79
2023/07/03 12:06:38;;;;;;;18.85;5.75;;;22.10;92.60;;;;;;5090606;28;20051;-71
2023/07/03 12:09:20;;;;;;;15.20;6.15;;;21.80;92.90;;;;;;5105881;28;20058;-75
2023/07/03 12:12:04;;;;;;;17.88;6.50;;;21.80;94.00;;;;;;5110533;28;20031;-74
2023/07/03 12:17:19;;;;;;;18.70;7.00;;;22.30;92.60;;;;;;5111816;28;20074;-77
2023/07/03 12:19:46;;;;;;;16.15;6.25;;;21.80;93.70;;;;;;5117848;27;20118;-76
2023/07/03 12:22:18;;;;;;;12.73;6.35;;;22.10;94.20;;;;;;5110292;28;20020;-72
2023/07/03 12:24:45;;;;;;;17.90;5.82;;;22.10;93.80;;;;;;5111839;28;20478;-77
2023/07/03 12:27:22;;;;;;;16.40;5.50;;;22.00;94.90;;;;;;5110820;28;20498;-80
2023/07/03 12:29:50;;;;;;;20.25;5.70;;;22.00;94.10;;;;;;5111650;28;20052;-74
2023/07/03 12:32:30;;;;;;;15.02;5.70;;;21.80;93.40;;;;;;5111178;28;20020;-74
2023/07/03 12:35:10;;;;;;;14.05;5.90;;;21.60;93.30;;;;;;5110637;28;20028;-75
2023/07/03 12:37:48;;;;;;;18.35;5.78;;;21.80;93.40;;;;;;5110742;28;20704;-77
2023/07/03 12:40:17;;;;;;;10.60;4.75;;;22.30;94.10;;;;;;5111045;28;20067;-71
2023/07/03 12:42:47;;;;;;;20.38;5.82;;;23.00;92.80;;;;;;5108422;28;20038;-75
2023/07/03 12:45:19;;;;;;;18.08;5.28;;;23.50;91.90;;;;;;5092293;28;20107;-74
2023/07/03 12:47:46;;;;;;;17.10;5.55;;;23.10;91.60;;;;;;5100683;27;20060;-76
2023/07/03 12:50:15;;;;;;;15.30;5.15;;;23.70;92.60;;;;;;5110486;28;20034;-73
2023/07/03 12:52:41;;;;;;;16.35;5.70;;;23.80;90.40;;;;;;5110801;28;20036;-73
2023/07/03 12:55:08;;;;;;;15.73;5.43;;;23.10;91.90;;;;;;5111872;28;20032;-74
2023/07/03 12:57:37;;;;;;;21.00;5.05;;;22.70;91.90;;;;;;5108514;28;20034;-72
2023/07/03 13:00:06;;;;;;;12.35;5.03;;;22.80;92.40;;;;;;5110385;28;20051;-78
2023/07/03 13:02:34;;;;;;;13.40;5.10;;;22.70;92.40;;;;;;5090626;27;20142;-72
2023/07/03 13:05:04;;;;;;;12.55;4.80;;;22.80;93.40;;;;;;5109656;28;20730;-73
2023/07/03 13:07:30;;;;;;;14.50;4.60;;;22.80;92.20;;;;;;5109008;28;20038;-73
2023/07/03 13:09:58;;;;;;;14.10;5.63;;;22.80;93.30;;;;;;5110604;28;20093;-74
2023/07/03 13:12:26;;;;;;;12.25;4.60;;;23.30;91.00;;;;;;5109955;28;20028;-79
2023/07/03 13:15:08;;;;;;;13.52;4.43;;;23.80;90.80;;;;;;5110604;28;20032;-70
2023/07/03 13:17:37;;;;;;;13.25;5.15;;;24.30;90.50;;;;;;5117775;27;20035;-87
2023/07/03 13:20:16;;;;;;;21.17;4.88;;;24.20;90.50;;;;;;5109202;28;20056;-73
2023/07/03 13:22:50;;;;;;;11.85;4.97;;;24.30;89.80;;;;;;5093252;28;20725;-72
2023/07/03 13:25:26;;;;;;;15.82;4.97;;;23.80;92.00;;;;;;5109308;28;20067;-72
2023/07/03 13:27:52;;;;;;;11.25;4.97;;;23.90;91.40;;;;;;5109975;28;20043;-73
2023/07/03 13:30:39;;;;;;;12.45;4.65;;;24.00;91.30;;;;;;5109293;28;20065;-72
2023/07/03 13:33:08;;;;;;;16.20;5.05;;;24.00;91.20;;;;;;5109379;28;20387;-74
2023/07/03 13:35:43;;;;;;;14.70;5.20;;;23.80;90.50;;;;;;5107029;28;20023;-75
2023/07/03 13:38:10;;;;;;;17.50;4.68;;;23.40;90.30;;;;;;5104056;28;20111;-72
2023/07/03 13:40:36;;;;;;;12.75;4.55;;;23.50;91.40;;;;;;5092434;28;20055;-75
2023/07/03 13:43:01;;;;;;;12.73;5.03;;;23.70;91.70;;;;;;5103839;28;20062;-72
2023/07/03 13:45:27;;;;;;;13.07;4.82;;;23.60;89.70;;;;;;5125044;27;20031;-72
2023/07/03 13:47:53;;;;;;;13.07;4.82;;;23.00;91.00;;;;;;5110597;27;20083;-71
2023/07/03 13:50:19;;;;;;;10.35;4.85;;;23.10;91.30;;;;;;5106719;28;20060;-72
2023/07/03 13:52:45;;;;;;;12.13;4.97;;;23.00;91.00;;;;;;5106193;28;20125;-75
2023/07/03 13:55:11;;;;;;;11.30;4.05;;;22.80;91.50;;;;;;5107933;28;20063;-73
2023/07/03 13:57:36;;;;;;;10.73;4.43;;;22.70;91.50;;;;;;5115323;27;20039;-72
2023/07/03 14:00:02;;;;;;;12.35;4.43;;;22.80;91.50;;;;;;5105020;27;20043;-72
2023/07/03 14:02:30;;;;;;;20.35;4.85;;;22.70;90.80;;;;;;5085969;28;20141;-73
2023/07/03 14:04:55;;;;;;;9.27;4.07;;;22.70;90.60;;;;;;5108038;27;20050;-71
2023/07/03 14:07:22;;;;;;;16.23;4.38;;;22.90;91.10;;;;;;5104460;28;20472;-70
2023/07/03 14:09:47;;;;;;;14.88;4.97;;;23.40;90.80;;;;;;5108801;28;20129;-71
2023/07/03 14:12:13;;;;;;;15.70;4.90;;;23.20;89.30;;;;;;5109999;28;20107;-72
2023/07/03 14:14:38;;;;;;;14.50;5.13;;;22.50;90.10;;;;;;5105836;28;20032;-72
2023/07/03 14:17:04;;;;;;;9.73;3.92;;;22.30;90.90;;;;;;5091744;28;20055;-71
2023/07/03 14:19:30;;;;;;;12.82;4.45;;;22.40;92.10;;;;;;5108032;28;20027;-72
2023/07/03 14:21:56;;;;;;;10.05;4.18;;;22.90;90.10;;;;;;5109177;28;20032;-71
2023/07/03 14:24:22;;;;;;;12.70;4.15;;;23.50;91.20;;;;;;5105589;27;20035;-72
2023/07/03 14:26:48;;;;;;;12.07;4.53;;;24.00;87.30;;;;;;5123177;27;20032;-72
2023/07/03 14:29:14;;;;;;;11.50;4.55;;;23.60;86.20;;;;;;5101696;28;20099;-70
2023/07/03 14:31:39;;;;;;;13.38;3.92;;;23.20;89.70;;;;;;5098133;28;20031;-71
2023/07/03 14:34:05;;;;;;;10.45;3.97;;;22.80;88.20;;;;;;5102055;28;20123;-72
2023/07/03 14:36:31;;;;;;;10.00;4.18;;;22.60;89.30;;;;;;5105653;28;20028;-72
2023/07/03 14:38:56;;;;;;;10.98;2.92;;;22.60;90.00;;;;;;5092536;28;20111;-73
2023/07/03 14:41:22;;;;;;;14.88;3.65;;;22.50;89.60;;;;;;5092895;28;20391;-71
2023/07/03 14:43:49;;;;;;;20.63;3.72;;;22.60;90.70;;;;;;5105548;28;20024;-72
2023/07/03 14:46:14;;;;;;;12.40;3.47;;;22.30;88.20;;;;;;5108795;28;20040;-71
2023/07/03 14:48:40;;;;;;;13.55;3.30;;;22.30;91.30;;;;;;5106373;28;20039;-73
2023/07/03 14:51:05;;;;;;;8.30;3.38;;;22.40;91.00;;;;;;5090085;28;20024;-72
2023/07/03 14:53:31;;;;;;;7.28;3.28;;;22.60;90.10;;;;;;5099234;28;20368;-72
2023/07/03 14:55:58;;;;;;;6.07;2.70;;;23.10;91.00;;;;;;5092225;28;20032;-72
2023/07/03 14:58:24;;;;;;;10.95;3.03;;;23.30;90.00;;;;;;5097459;28;20492;-71
2023/07/03 15:00:50;;;;;;;10.55;2.90;;;23.60;90.30;;;;;;5123726;28;20027;-73
2023/07/03 15:03:16;;;;;;;11.20;3.05;;;23.60;86.90;;;;;;5108090;28;20083;-72
2023/07/03 15:05:41;;;;;;;8.05;2.33;;;23.10;87.00;;;;;;5104408;28;20444;-72
2023/07/03 15:08:07;;;;;;;15.95;2.58;;;22.90;89.20;;;;;;5124533;27;20124;-72
2023/07/03 15:10:35;;;;;;;6.88;3.05;;;23.20;90.20;;;;;;5108977;28;20115;-71
2023/07/03 15:13:01;;;;;;;8.20;2.72;;;23.50;89.70;;;;;;5096324;28;20386;-72
2023/07/03 15:15:26;;;;;;;6.45;2.33;;;23.50;87.80;;;;;;5101659;28;20115;-72
2023/07/03 15:17:52;;;;;;;7.00;2.80;;;23.20;87.30;;;;;;5093946;28;20479;-71
2023/07/03 15:20:18;;;;;;;9.30;2.72;;;22.80;88.80;;;;;;5103900;28;20532;-73
2023/07/03 15:22:52;;;;;;;6.00;2.60;;;22.80;90.10;;;;;;5084892;28;20192;-71
2023/07/03 15:25:18;;;;;;;9.20;2.40;;;22.80;90.60;;;;;;5091180;28;20036;-72
2023/07/03 15:27:44;;;;;;;16.83;2.40;;;22.70;90.40;;;;;;5090009;28;20047;-72
2023/07/03 15:30:10;;;;;;;10.70;2.17;;;22.80;90.30;;;;;;5122526;28;20050;-72
2023/07/03 15:32:36;;;;;;;10.35;2.78;;;22.80;90.00;;;;;;5126555;28;20035;-72